createdAt,value
2018-07-26T00:01:30.716Z,52.97
2018-07-26T00:03:59.477Z,53.29
2018-07-26T00:06:28.171Z,53.74
2018-07-26T00:08:57.150Z,54.77
2018-07-26T00:11:26.000Z,54.21
2018-07-26T00:13:54.629Z,54.66
2018-07-26T00:16:23.835Z,55.70
2018-07-26T00:18:52.481Z,55.82
2018-07-26T00:21:21.120Z,56.27
2018-07-26T00:23:50.079Z,57.05
2018-07-26T00:26:18.721Z,56.39
2018-07-26T00:28:47.416Z,57.01
2018-07-26T00:31:16.252Z,56.36
2018-07-26T00:33:44.931Z,56.42
2018-07-26T00:36:13.673Z,56.79
2018-07-26T00:38:43.157Z,56.73
2018-07-26T00:41:11.818Z,57.63
2018-07-26T00:43:40.853Z,58.08
2018-07-26T00:46:12.659Z,58.24
2018-07-26T00:48:41.308Z,57.55
2018-07-26T00:51:10.141Z,58.57
2018-07-26T00:53:39.012Z,57.59
2018-07-26T00:56:07.651Z,57.62
2018-07-26T00:58:36.247Z,57.85
2018-07-26T01:01:04.899Z,56.83
2018-07-26T01:03:33.511Z,56.83
2018-07-26T01:06:02.263Z,56.90
2018-07-26T01:08:31.020Z,57.38
2018-07-26T01:11:00.041Z,57.43
2018-07-26T01:13:29.399Z,57.54
2018-07-26T01:15:58.207Z,57.48
2018-07-26T01:18:27.023Z,58.33
2018-07-26T01:20:55.653Z,58.60
2018-07-26T01:23:24.652Z,58.92
2018-07-26T01:25:53.643Z,59.05
2018-07-26T01:28:22.755Z,59.65
2018-07-26T01:30:51.963Z,58.85
2018-07-26T01:33:20.611Z,58.79
2018-07-26T01:35:49.176Z,59.14
2018-07-26T01:38:18.212Z,59.14
2018-07-26T01:40:46.876Z,59.44
2018-07-26T01:43:30.036Z,59.51
2018-07-26T01:45:58.676Z,59.36
2018-07-26T01:48:27.363Z,58.72
2018-07-26T01:50:56.190Z,59.45
2018-07-26T01:53:25.016Z,59.58
2018-07-26T01:55:53.620Z,59.35
2018-07-26T01:58:22.246Z,59.17
2018-07-26T02:00:50.895Z,59.57
2018-07-26T02:03:19.419Z,59.53
2018-07-26T02:05:48.419Z,59.51
2018-07-26T02:08:17.189Z,60.48
2018-07-26T02:10:45.924Z,60.88
2018-07-26T02:13:14.756Z,60.74
2018-07-26T02:15:43.406Z,60.07
2018-07-26T02:18:11.999Z,61.02
2018-07-26T02:20:40.831Z,61.20
2018-07-26T02:23:09.641Z,60.70
2018-07-26T02:25:38.393Z,60.69
2018-07-26T02:28:07.739Z,60.92
2018-07-26T02:30:36.571Z,61.53
2018-07-26T02:33:05.792Z,62.20
2018-07-26T02:35:34.476Z,61.71
2018-07-26T02:38:03.131Z,60.77
2018-07-26T02:40:31.772Z,60.77
2018-07-26T02:43:00.636Z,60.77
2018-07-26T02:45:29.228Z,60.76
2018-07-26T02:47:57.927Z,61.18
2018-07-26T02:50:26.783Z,61.01
2018-07-26T02:52:55.461Z,62.28
2018-07-26T02:55:24.289Z,61.84
2018-07-26T02:57:53.264Z,61.66
2018-07-26T03:00:21.920Z,62.20
2018-07-26T03:02:50.927Z,62.92
2018-07-26T03:05:19.798Z,62.64
2018-07-26T03:07:48.487Z,62.25
2018-07-26T03:10:17.264Z,62.69
2018-07-26T03:12:46.256Z,62.70
2018-07-26T03:15:14.980Z,62.48
2018-07-26T03:17:43.670Z,61.95
2018-07-26T03:20:12.472Z,62.36
2018-07-26T03:22:41.216Z,62.52
2018-07-26T03:25:09.908Z,62.55
2018-07-26T03:27:38.483Z,62.18
2018-07-26T03:30:08.055Z,62.30
2018-07-26T03:32:36.891Z,62.59
2018-07-26T03:35:05.816Z,62.72
2018-07-26T03:37:34.487Z,62.67
2018-07-26T03:40:03.184Z,62.70
2018-07-26T03:42:31.920Z,63.55
2018-07-26T03:45:00.630Z,62.88
2018-07-26T03:47:29.295Z,63.11
2018-07-26T03:49:58.016Z,62.61
2018-07-26T03:52:26.742Z,62.66
2018-07-26T03:54:55.780Z,63.05
2018-07-26T03:57:25.300Z,62.29
2018-07-26T03:59:53.982Z,63.35
2018-07-26T04:02:22.708Z,63.06
2018-07-26T04:04:51.703Z,63.46
2018-07-26T04:07:20.702Z,63.00
2018-07-26T04:09:49.325Z,63.51
2018-07-26T04:12:18.041Z,63.26
2018-07-26T04:14:46.691Z,62.76
2018-07-26T04:17:15.341Z,63.05
2018-07-26T04:19:44.147Z,62.96
2018-07-26T04:22:12.968Z,63.69
2018-07-26T04:24:41.796Z,63.26
2018-07-26T04:27:10.499Z,63.83
2018-07-26T04:29:39.273Z,63.69
2018-07-26T04:32:08.006Z,63.28
2018-07-26T04:34:36.864Z,63.65
2018-07-26T04:37:06.236Z,64.40
2018-07-26T04:39:34.799Z,64.36
2018-07-26T04:42:03.653Z,64.36
2018-07-26T04:44:32.377Z,64.38
2018-07-26T04:47:01.056Z,63.98
2018-07-26T04:49:29.900Z,63.79
2018-07-26T04:51:58.618Z,62.98
2018-07-26T04:54:27.631Z,63.03
2018-07-26T04:56:58.141Z,63.08
2018-07-26T04:59:26.843Z,62.69
2018-07-26T05:01:55.530Z,63.49
2018-07-26T05:04:24.369Z,62.97
2018-07-26T05:06:52.996Z,63.27
2018-07-26T05:09:22.380Z,62.82
2018-07-26T05:11:51.539Z,63.89
2018-07-26T05:14:20.379Z,63.35
2018-07-26T05:16:48.951Z,62.25
2018-07-26T05:19:17.563Z,62.31
2018-07-26T05:21:46.455Z,61.63
2018-07-26T05:24:15.129Z,60.87
2018-07-26T05:26:43.877Z,61.21
2018-07-26T05:29:12.671Z,61.40
2018-07-26T05:31:41.365Z,60.51
2018-07-26T05:34:10.056Z,60.54
2018-07-26T05:36:38.684Z,59.70
2018-07-26T05:39:10.159Z,59.76
2018-07-26T05:41:39.581Z,59.51
2018-07-26T05:44:08.480Z,58.39
2018-07-26T05:46:37.134Z,58.62
2018-07-26T05:49:06.092Z,58.76
2018-07-26T05:51:34.996Z,57.61
2018-07-26T05:54:03.895Z,58.32
2018-07-26T05:56:32.501Z,57.75
2018-07-26T05:59:01.552Z,58.22
2018-07-26T06:01:30.336Z,56.77
2018-07-26T06:03:59.188Z,56.98
2018-07-26T06:06:27.895Z,56.15
2018-07-26T06:08:57.127Z,56.83
2018-07-26T06:11:25.844Z,55.30
2018-07-26T06:13:54.476Z,54.94
2018-07-26T06:16:23.405Z,53.81
2018-07-26T06:18:52.106Z,53.02
2018-07-26T06:21:20.736Z,53.07
2018-07-26T06:23:49.868Z,52.82
2018-07-26T06:26:18.504Z,51.78
2018-07-26T06:28:47.361Z,50.11
2018-07-26T06:31:16.133Z,49.69
2018-07-26T06:33:44.796Z,49.09
2018-07-26T06:36:13.465Z,49.66
2018-07-26T06:38:42.312Z,49.60
2018-07-26T06:41:11.055Z,48.88
2018-07-26T06:43:40.327Z,47.76
2018-07-26T06:46:09.477Z,46.14
2018-07-26T06:48:38.121Z,45.35
2018-07-26T06:51:06.831Z,44.09
2018-07-26T06:53:35.944Z,41.48
2018-07-26T06:56:04.932Z,42.05
2018-07-26T06:58:33.568Z,41.56
2018-07-26T07:01:02.303Z,40.68
2018-07-26T07:03:31.424Z,42.06
2018-07-26T07:06:00.108Z,42.22
2018-07-26T07:08:28.837Z,41.91
2018-07-26T07:10:57.647Z,41.17
2018-07-26T07:13:26.365Z,40.14
2018-07-26T07:15:55.240Z,40.05
2018-07-26T07:18:24.452Z,38.72
2018-07-26T07:20:53.120Z,37.48
2018-07-26T07:23:22.124Z,36.66
2018-07-26T07:25:50.920Z,36.06
2018-07-26T07:28:19.644Z,36.22
2018-07-26T07:30:48.856Z,36.01
2018-07-26T07:33:17.598Z,36.34
2018-07-26T07:35:46.201Z,35.47
2018-07-26T07:38:15.149Z,35.02
2018-07-26T07:40:44.064Z,34.48
2018-07-26T07:43:12.745Z,32.69
2018-07-26T07:45:41.723Z,32.29
2018-07-26T07:48:10.590Z,32.61
2018-07-26T07:50:39.477Z,31.80
2018-07-26T07:53:08.320Z,30.49
2018-07-26T07:55:36.927Z,29.94
2018-07-26T07:58:06.289Z,29.81
2018-07-26T08:00:34.981Z,29.65
2018-07-26T08:03:03.590Z,29.25
2018-07-26T08:05:32.440Z,28.18
2018-07-26T08:08:01.445Z,28.51
2018-07-26T08:10:30.163Z,28.09
2018-07-26T08:12:58.916Z,28.10
2018-07-26T08:15:28.004Z,26.92
2018-07-26T08:17:56.642Z,26.64
2018-07-26T08:20:25.228Z,27.56
2018-07-26T08:22:54.104Z,26.38
2018-07-26T08:25:23.060Z,26.83
2018-07-26T08:27:51.993Z,27.79
2018-07-26T08:30:20.729Z,28.04
2018-07-26T08:32:49.367Z,27.57
2018-07-26T08:35:18.198Z,25.01
2018-07-26T08:37:46.931Z,24.94
2018-07-26T08:40:16.684Z,24.17
2018-07-26T08:42:46.284Z,25.55
2018-07-26T08:45:15.425Z,24.54
2018-07-26T08:47:44.469Z,24.81
2018-07-26T08:50:13.388Z,23.25
2018-07-26T08:52:42.218Z,23.26
2018-07-26T08:55:10.832Z,24.31
2018-07-26T08:57:39.965Z,24.28
2018-07-26T09:00:09.224Z,22.30
2018-07-26T09:02:37.973Z,23.58
2018-07-26T09:05:07.547Z,22.34
2018-07-26T09:07:36.419Z,20.86
2018-07-26T09:10:05.096Z,20.15
2018-07-26T09:12:35.877Z,21.53
2018-07-26T09:15:04.504Z,20.45
2018-07-26T09:17:33.246Z,20.70
2018-07-26T09:20:02.124Z,19.66
2018-07-26T09:22:30.816Z,20.69
2018-07-26T09:24:59.460Z,18.95
2018-07-26T09:27:28.483Z,19.94
2018-07-26T09:29:57.337Z,19.70
2018-07-26T09:32:25.946Z,19.55
2018-07-26T09:34:55.050Z,20.20
2018-07-26T09:37:23.880Z,18.72
2018-07-26T09:39:52.551Z,17.76
2018-07-26T09:42:21.751Z,16.26
2018-07-26T09:44:50.474Z,17.00
2018-07-26T09:47:19.180Z,16.49
2018-07-26T09:49:47.940Z,16.76
2018-07-26T09:52:17.019Z,16.54
2018-07-26T09:54:46.046Z,16.33
2018-07-26T09:57:15.379Z,15.44
2018-07-26T09:59:44.016Z,15.00
2018-07-26T10:02:12.677Z,14.75
2018-07-26T10:04:41.397Z,13.97
2018-07-26T10:07:10.204Z,12.28
2018-07-26T10:09:39.092Z,12.50
2018-07-26T10:12:08.184Z,12.64
2018-07-26T10:14:36.861Z,13.03
2018-07-26T10:17:05.778Z,12.69
2018-07-26T10:19:34.476Z,13.14
2018-07-26T10:22:03.280Z,14.85
2018-07-26T10:24:31.994Z,13.27
2018-07-26T10:27:00.885Z,12.91
2018-07-26T10:29:29.588Z,11.67
2018-07-26T10:31:58.167Z,12.16
2018-07-26T10:34:27.087Z,12.65
2018-07-26T10:36:56.077Z,12.64
2018-07-26T10:39:24.796Z,11.78
2018-07-26T10:41:56.700Z,11.07
2018-07-26T10:44:25.326Z,12.09
2018-07-26T10:46:53.964Z,10.99
2018-07-26T10:49:22.755Z,11.23
2018-07-26T10:51:51.899Z,11.98
2018-07-26T10:54:20.638Z,10.19
2018-07-26T10:56:49.280Z,11.99
2018-07-26T10:59:18.256Z,10.61
2018-07-26T11:01:47.156Z,12.71
2018-07-26T11:04:15.931Z,12.67
2018-07-26T11:06:44.587Z,11.12
2018-07-26T11:09:13.327Z,12.40
2018-07-26T11:11:42.053Z,11.36
2018-07-26T11:14:10.735Z,11.51
2018-07-26T11:16:39.835Z,10.71
2018-07-26T11:19:09.069Z,10.38
2018-07-26T11:21:37.632Z,10.46
2018-07-26T11:24:06.834Z,10.21
2018-07-26T11:26:35.543Z,10.04
2018-07-26T11:29:04.328Z,11.29
2018-07-26T11:31:32.980Z,12.54
2018-07-26T11:34:01.674Z,10.83
2018-07-26T11:36:32.075Z,10.54
2018-07-26T11:39:00.691Z,9.49
2018-07-26T11:41:29.433Z,10.61
2018-07-26T11:43:58.095Z,10.76
2018-07-26T11:46:26.746Z,10.36
2018-07-26T11:48:55.515Z,9.95
2018-07-26T11:51:25.147Z,10.75
2018-07-26T11:53:53.815Z,10.54
2018-07-26T11:56:22.514Z,9.66
2018-07-26T11:58:51.640Z,11.06
2018-07-26T12:01:20.208Z,10.16
2018-07-26T12:03:49.015Z,11.18
2018-07-26T12:06:17.801Z,11.34
2018-07-26T12:08:46.488Z,11.03
2018-07-26T12:11:15.359Z,11.54
2018-07-26T12:13:44.208Z,10.18
2018-07-26T12:16:13.156Z,9.75
2018-07-26T12:18:41.855Z,9.09
2018-07-26T12:21:10.543Z,9.07
2018-07-26T12:23:39.173Z,10.42
2018-07-26T12:26:08.081Z,10.78
2018-07-26T12:28:36.884Z,10.10
2018-07-26T12:31:05.593Z,9.33
2018-07-26T12:33:34.196Z,9.38
2018-07-26T12:36:02.944Z,10.15
2018-07-26T12:38:31.779Z,10.79
2018-07-26T12:41:00.388Z,11.01
2018-07-26T12:43:29.278Z,11.91
2018-07-26T12:45:57.856Z,12.29
2018-07-26T12:48:27.490Z,12.79
2018-07-26T12:50:56.292Z,12.87
2018-07-26T12:53:24.936Z,11.74
2018-07-26T12:55:53.572Z,10.12
2018-07-26T12:58:22.380Z,9.84
2018-07-26T13:00:51.116Z,9.85
2018-07-26T13:03:19.941Z,10.83
2018-07-26T13:05:48.801Z,10.85
2018-07-26T13:08:17.887Z,11.72
2018-07-26T13:10:46.671Z,10.02
2018-07-26T13:13:15.485Z,8.94
2018-07-26T13:15:44.231Z,9.63
2018-07-26T13:18:12.919Z,9.87
2018-07-26T13:20:41.662Z,11.38
2018-07-26T13:23:10.391Z,13.70
2018-07-26T13:25:39.615Z,13.08
2018-07-26T13:28:08.315Z,11.55
2018-07-26T13:30:37.061Z,10.87
2018-07-26T13:33:05.611Z,10.48
2018-07-26T13:35:34.340Z,10.05
2018-07-26T13:38:03.160Z,10.54
2018-07-26T13:40:31.951Z,10.58
2018-07-26T13:43:00.641Z,10.77
2018-07-26T13:45:29.547Z,11.61
2018-07-26T13:47:58.167Z,11.32
2018-07-26T13:50:27.256Z,12.43
2018-07-26T13:52:55.976Z,12.40
2018-07-26T13:55:25.085Z,12.34
2018-07-26T13:57:53.974Z,11.06
2018-07-26T14:00:22.538Z,10.47
2018-07-26T14:02:51.186Z,10.98
2018-07-26T14:05:19.926Z,11.67
2018-07-26T14:07:48.588Z,12.15
2018-07-26T14:10:17.622Z,12.04
2018-07-26T14:12:46.804Z,12.84
2018-07-26T14:15:15.480Z,13.89
2018-07-26T14:17:44.209Z,14.21
2018-07-26T14:20:13.589Z,12.71
2018-07-26T14:22:42.764Z,12.13
2018-07-26T14:25:11.495Z,11.07
2018-07-26T14:27:40.945Z,11.99
2018-07-26T14:30:10.241Z,12.25
2018-07-26T14:32:38.965Z,12.45
2018-07-26T14:35:08.176Z,13.24
2018-07-26T14:37:37.385Z,11.93
2018-07-26T14:40:06.524Z,11.99
2018-07-26T14:42:35.505Z,12.61
2018-07-26T14:45:04.886Z,13.25
2018-07-26T14:47:33.771Z,12.65
2018-07-26T14:50:02.614Z,13.12
2018-07-26T14:52:31.279Z,13.98
2018-07-26T14:55:00.812Z,14.65
2018-07-26T14:57:29.504Z,13.88
2018-07-26T14:59:58.164Z,13.14
2018-07-26T15:02:27.058Z,13.26
2018-07-26T15:04:55.907Z,13.37
2018-07-26T15:07:25.596Z,13.39
2018-07-26T15:09:54.274Z,14.48
2018-07-26T15:12:23.465Z,13.41
2018-07-26T15:14:52.307Z,14.07
2018-07-26T15:17:21.128Z,14.20
2018-07-26T15:19:49.820Z,14.00
2018-07-26T15:22:18.778Z,14.71
2018-07-26T15:24:47.478Z,15.19
2018-07-26T15:27:17.172Z,15.66
2018-07-26T15:29:46.076Z,15.32
2018-07-26T15:32:15.307Z,15.76
2018-07-26T15:34:44.194Z,16.63
2018-07-26T15:37:12.981Z,17.53
2018-07-26T15:39:41.746Z,17.82
2018-07-26T15:42:10.694Z,17.65
2018-07-26T15:44:40.899Z,17.48
2018-07-26T15:47:09.758Z,17.90
2018-07-26T15:49:38.645Z,18.25
2018-07-26T15:52:07.579Z,17.91
2018-07-26T15:54:36.845Z,17.30
2018-07-26T15:57:06.062Z,18.21
2018-07-26T15:59:34.687Z,17.92
2018-07-26T16:02:03.689Z,18.58
2018-07-26T16:04:32.353Z,18.55
2018-07-26T16:07:01.125Z,18.69
2018-07-26T16:09:29.801Z,18.34
2018-07-26T16:11:58.708Z,18.33
2018-07-26T16:14:27.620Z,17.90
2018-07-26T16:16:56.380Z,18.89
2018-07-26T16:19:25.129Z,17.98
2018-07-26T16:21:53.931Z,18.10
2018-07-26T16:24:23.028Z,18.41
2018-07-26T16:26:51.852Z,18.45
2018-07-26T16:29:20.696Z,18.33
2018-07-26T16:31:49.517Z,17.48
2018-07-26T16:34:18.420Z,17.80
2018-07-26T16:36:47.292Z,18.19
2018-07-26T16:39:16.407Z,17.99
2018-07-26T16:41:45.220Z,18.10
2018-07-26T16:44:14.069Z,17.84
2018-07-26T16:46:43.152Z,17.35
2018-07-26T16:49:11.981Z,18.15
2018-07-26T16:51:41.583Z,18.25
2018-07-26T16:54:10.354Z,18.08
2018-07-26T16:56:39.305Z,18.48
2018-07-26T16:59:08.499Z,18.24
2018-07-26T17:01:37.437Z,18.44
2018-07-26T17:04:06.320Z,18.73
2018-07-26T17:06:35.001Z,18.33
2018-07-26T17:09:04.170Z,18.13
2018-07-26T17:11:33.107Z,18.73
2018-07-26T17:14:01.784Z,18.38
2018-07-26T17:16:30.499Z,18.55
2018-07-26T17:18:59.401Z,18.04
2018-07-26T17:21:28.177Z,18.20
2018-07-26T17:23:57.877Z,18.15
2018-07-26T17:26:26.656Z,19.01
2018-07-26T17:28:55.673Z,19.54
2018-07-26T17:31:24.685Z,19.50
2018-07-26T17:33:53.612Z,20.05
2018-07-26T17:36:22.508Z,20.40
2018-07-26T17:38:51.316Z,21.17
2018-07-26T17:41:20.152Z,20.97
2018-07-26T17:43:49.036Z,21.48
2018-07-26T17:46:18.092Z,22.56
2018-07-26T17:48:46.707Z,23.24
2018-07-26T17:51:15.898Z,22.61
2018-07-26T17:53:44.669Z,23.39
2018-07-26T17:56:13.337Z,23.64
2018-07-26T17:58:42.327Z,23.93
2018-07-26T18:01:11.069Z,23.80
2018-07-26T18:03:39.993Z,23.59
2018-07-26T18:06:08.744Z,24.07
2018-07-26T18:08:37.688Z,24.08
2018-07-26T18:11:06.490Z,24.19
2018-07-26T18:13:35.201Z,24.46
2018-07-26T18:16:04.157Z,23.68
2018-07-26T18:18:33.682Z,23.78
2018-07-26T18:21:02.418Z,24.63
2018-07-26T18:23:31.432Z,24.16
2018-07-26T18:26:00.079Z,24.31
2018-07-26T18:28:29.081Z,24.22
2018-07-26T18:30:57.936Z,24.18
2018-07-26T18:33:27.003Z,24.40
2018-07-26T18:35:55.780Z,24.30
2018-07-26T18:38:24.585Z,24.17
2018-07-26T18:40:53.911Z,24.11
2018-07-26T18:43:23.188Z,24.30
2018-07-26T18:45:51.792Z,24.82
2018-07-26T18:48:20.825Z,24.84
2018-07-26T18:50:49.547Z,25.23
2018-07-26T18:53:18.601Z,25.07
2018-07-26T18:55:47.315Z,25.70
2018-07-26T18:58:16.080Z,25.77
2018-07-26T19:00:45.139Z,25.92
2018-07-26T19:03:14.031Z,25.92
2018-07-26T19:05:42.861Z,26.84
2018-07-26T19:08:11.986Z,28.23
2018-07-26T19:10:40.596Z,27.94
2018-07-26T19:13:09.156Z,28.26
2018-07-26T19:15:38.012Z,29.30
2018-07-26T19:18:06.673Z,29.02
2018-07-26T19:20:35.340Z,29.08
2018-07-26T19:23:04.261Z,29.15
2018-07-26T19:25:32.984Z,29.07
2018-07-26T19:28:01.666Z,30.12
2018-07-26T19:30:30.417Z,29.73
2018-07-26T19:32:59.193Z,30.03
2018-07-26T19:35:27.971Z,30.47
2018-07-26T19:37:56.926Z,31.37
2018-07-26T19:40:25.619Z,30.12
2018-07-26T19:42:55.335Z,29.52
2018-07-26T19:45:24.260Z,30.21
2018-07-26T19:47:53.040Z,28.82
2018-07-26T19:50:21.816Z,29.44
2018-07-26T19:52:50.755Z,30.14
2018-07-26T19:55:19.412Z,30.00
2018-07-26T19:57:48.108Z,29.79
2018-07-26T20:00:17.232Z,31.08
2018-07-26T20:02:45.920Z,29.36
2018-07-26T20:05:14.616Z,29.59
2018-07-26T20:07:43.546Z,30.51
2018-07-26T20:10:13.690Z,30.50
2018-07-26T20:12:42.691Z,30.49
2018-07-26T20:15:11.541Z,31.65
2018-07-26T20:17:40.395Z,30.82
2018-07-26T20:20:10.914Z,32.93
2018-07-26T20:22:39.542Z,31.49
2018-07-26T20:25:08.267Z,32.94
2018-07-26T20:27:36.972Z,32.78
2018-07-26T20:30:08.008Z,32.53
2018-07-26T20:32:37.474Z,33.21
2018-07-26T20:35:06.796Z,31.45
2018-07-26T20:37:35.481Z,33.26
2018-07-26T20:40:04.906Z,32.92
2018-07-26T20:42:33.684Z,32.83
2018-07-26T20:45:02.659Z,32.98
2018-07-26T20:47:31.689Z,33.47
2018-07-26T20:50:00.567Z,33.43
2018-07-26T20:52:29.243Z,34.48
2018-07-26T20:54:58.249Z,34.25
2018-07-26T20:57:27.031Z,34.05
2018-07-26T20:59:55.737Z,34.15
2018-07-26T21:02:24.625Z,34.55
2018-07-26T21:04:53.558Z,34.69
2018-07-26T21:07:22.724Z,34.47
2018-07-26T21:09:51.817Z,34.97
2018-07-26T21:12:20.759Z,35.20
2018-07-26T21:14:49.643Z,35.19
2018-07-26T21:17:18.244Z,35.13
2018-07-26T21:19:46.865Z,35.58
2018-07-26T21:22:15.590Z,35.89
2018-07-26T21:24:44.426Z,36.11
2018-07-26T21:27:13.177Z,36.71
2018-07-26T21:29:41.869Z,37.84
2018-07-26T21:32:10.811Z,37.58
2018-07-26T21:34:39.534Z,37.95
2018-07-26T21:37:08.281Z,37.72
2018-07-26T21:39:36.971Z,38.57
2018-07-26T21:42:05.828Z,39.18
2018-07-26T21:44:34.860Z,39.46
2018-07-26T21:47:04.235Z,39.50
2018-07-26T21:49:33.062Z,39.28
2018-07-26T21:52:01.671Z,40.18
2018-07-26T21:54:30.424Z,40.30
2018-07-26T21:56:59.208Z,41.00
2018-07-26T21:59:27.832Z,40.46
2018-07-26T22:01:56.967Z,40.07
2018-07-26T22:04:25.781Z,40.75
2018-07-26T22:06:54.462Z,41.30
2018-07-26T22:09:23.117Z,40.66
2018-07-26T22:11:52.245Z,41.11
2018-07-26T22:14:20.859Z,41.56
2018-07-26T22:16:49.719Z,41.78
2018-07-26T22:19:18.472Z,42.14
2018-07-26T22:21:48.206Z,42.47
2018-07-26T22:24:17.063Z,42.83
2018-07-26T22:26:46.696Z,42.37
2018-07-26T22:29:15.843Z,42.05
2018-07-26T22:31:45.122Z,42.37
2018-07-26T22:34:14.548Z,43.09
2018-07-26T22:36:43.364Z,42.83
2018-07-26T22:39:13.315Z,43.33
2018-07-26T22:41:42.932Z,43.56
2018-07-26T22:44:13.534Z,43.72
2018-07-26T22:46:42.948Z,42.76
2018-07-26T22:49:11.824Z,43.68
2018-07-26T22:51:41.084Z,43.28
2018-07-26T22:54:09.995Z,43.96
2018-07-26T22:56:38.961Z,44.26
2018-07-26T22:59:08.258Z,44.26
2018-07-26T23:01:38.066Z,43.70
2018-07-26T23:04:09.529Z,45.05
2018-07-26T23:06:38.330Z,44.67
2018-07-26T23:09:09.635Z,44.90
2018-07-26T23:11:38.608Z,45.49
2018-07-26T23:14:08.007Z,45.82
2018-07-26T23:16:54.937Z,44.98
2018-07-26T23:19:24.210Z,46.70
2018-07-26T23:21:52.992Z,46.24
2018-07-26T23:24:22.194Z,46.82
2018-07-26T23:26:51.424Z,46.24
2018-07-26T23:29:20.359Z,46.40
2018-07-26T23:31:49.340Z,46.19
2018-07-26T23:34:18.160Z,47.18
2018-07-26T23:36:46.975Z,47.14
2018-07-26T23:39:15.914Z,46.51
2018-07-26T23:41:44.626Z,46.53
2018-07-26T23:44:13.450Z,47.98
2018-07-26T23:46:43.042Z,47.31
2018-07-26T23:49:12.858Z,48.32
2018-07-26T23:51:42.297Z,47.19
2018-07-26T23:54:12.060Z,47.53
2018-07-26T23:56:42.029Z,47.52
2018-07-26T23:59:10.844Z,48.83
